createdAt,value
2018-01-21T00:00:14.009Z,9.27
2018-01-21T00:02:41.950Z,8.50
2018-01-21T00:05:10.056Z,8.10
2018-01-21T00:07:38.208Z,8.83
2018-01-21T00:10:08.445Z,8.30
2018-01-21T00:12:36.501Z,8.27
2018-01-21T00:15:04.627Z,7.60
2018-01-21T00:17:32.951Z,7.93
2018-01-21T00:20:03.175Z,7.43
2018-01-21T00:22:39.983Z,7.27
2018-01-21T00:25:08.222Z,7.97
2018-01-21T00:27:36.405Z,7.83
2018-01-21T00:30:04.554Z,7.67
2018-01-21T00:32:36.938Z,7.60
2018-01-21T00:35:04.976Z,7.50
2018-01-21T00:37:37.193Z,7.50
2018-01-21T00:40:07.402Z,8.63
2018-01-21T00:42:35.133Z,6.70
2018-01-21T00:45:03.073Z,7.60
2018-01-21T00:47:33.160Z,7.03
2018-01-21T00:50:00.993Z,7.20
2018-01-21T00:52:29.168Z,6.67
2018-01-21T00:54:57.125Z,5.80
2018-01-21T00:57:25.388Z,6.50
2018-01-21T00:59:53.502Z,6.30
2018-01-21T01:02:21.889Z,6.40
2018-01-21T01:04:50.136Z,6.10
2018-01-21T01:07:20.786Z,6.47
2018-01-21T01:09:48.858Z,6.20
2018-01-21T01:12:19.085Z,6.37
2018-01-21T01:14:47.099Z,6.60
2018-01-21T01:17:15.222Z,5.83
2018-01-21T01:19:43.480Z,6.27
2018-01-21T01:22:11.422Z,6.27
2018-01-21T01:24:39.486Z,5.27
2018-01-21T01:27:11.503Z,6.40
2018-01-21T01:29:39.576Z,5.80
2018-01-21T01:32:10.109Z,6.07
2018-01-21T01:34:40.328Z,6.43
2018-01-21T01:37:10.552Z,5.43
2018-01-21T01:39:38.804Z,6.43
2018-01-21T01:42:06.967Z,5.73
2018-01-21T01:44:34.934Z,6.27
2018-01-21T01:47:03.130Z,6.27
2018-01-21T01:49:31.091Z,6.47
2018-01-21T01:51:59.031Z,5.80
2018-01-21T01:54:27.322Z,6.33
2018-01-21T01:56:55.487Z,5.60
2018-01-21T01:59:23.687Z,5.87
2018-01-21T02:01:52.142Z,5.93
2018-01-21T02:04:20.135Z,5.60
2018-01-21T02:06:50.463Z,5.97
2018-01-21T02:09:22.846Z,5.13
2018-01-21T02:11:53.063Z,5.93
2018-01-21T02:14:21.195Z,5.13
2018-01-21T02:16:49.419Z,5.90
2018-01-21T02:19:19.432Z,5.57
2018-01-21T02:21:47.550Z,5.60
2018-01-21T02:24:15.865Z,5.50
2018-01-21T02:26:43.696Z,5.20
2018-01-21T02:29:11.861Z,5.63
2018-01-21T02:31:41.932Z,5.80
2018-01-21T02:34:09.768Z,4.90
2018-01-21T02:36:41.793Z,5.30
2018-01-21T02:39:09.873Z,5.60
2018-01-21T02:41:38.209Z,5.83
2018-01-21T02:44:06.587Z,5.40
2018-01-21T02:46:34.525Z,5.03
2018-01-21T02:49:04.637Z,4.90
2018-01-21T02:51:32.829Z,5.33
2018-01-21T02:54:00.717Z,5.03
2018-01-21T02:56:28.609Z,5.10
2018-01-21T02:58:56.697Z,5.13
2018-01-21T03:01:24.766Z,6.23
2018-01-21T03:03:56.858Z,5.53
2018-01-21T03:06:24.893Z,5.67
2018-01-21T03:08:52.985Z,4.90
2018-01-21T03:11:20.953Z,4.73
2018-01-21T03:13:51.127Z,5.23
2018-01-21T03:16:21.334Z,5.03
2018-01-21T03:18:49.148Z,4.90
2018-01-21T03:21:19.328Z,5.90
2018-01-21T03:23:47.154Z,6.70
2018-01-21T03:26:15.220Z,6.00
2018-01-21T03:28:43.421Z,5.67
2018-01-21T03:31:11.449Z,6.53
2018-01-21T03:33:39.435Z,5.87
2018-01-21T03:36:07.642Z,6.13
2018-01-21T03:38:35.322Z,5.60
2018-01-21T03:41:03.061Z,5.83
2018-01-21T03:43:33.378Z,5.67
2018-01-21T03:46:04.028Z,6.20
2018-01-21T03:48:31.984Z,6.00
2018-01-21T03:50:59.925Z,6.37
2018-01-21T03:53:28.116Z,5.37
2018-01-21T03:55:56.195Z,5.73
2018-01-21T03:58:24.119Z,6.17
2018-01-21T04:00:56.310Z,5.37
2018-01-21T04:03:28.509Z,6.10
2018-01-21T04:05:56.469Z,5.63
2018-01-21T04:08:24.414Z,6.10
2018-01-21T04:10:54.559Z,5.93
2018-01-21T04:13:22.512Z,6.80
2018-01-21T04:15:52.726Z,6.90
2018-01-21T04:18:20.669Z,7.33
2018-01-21T04:20:48.888Z,6.43
2018-01-21T04:23:23.316Z,7.20
2018-01-21T04:25:51.175Z,7.67
2018-01-21T04:28:19.106Z,6.67
2018-01-21T04:30:47.297Z,6.93
2018-01-21T04:33:17.335Z,7.37
2018-01-21T04:35:45.710Z,6.90
2018-01-21T04:38:13.703Z,7.03
2018-01-21T04:40:42.032Z,7.80
2018-01-21T04:43:09.998Z,7.80
2018-01-21T04:45:40.041Z,7.70
2018-01-21T04:48:07.978Z,8.43
2018-01-21T04:50:38.173Z,8.70
2018-01-21T04:53:06.360Z,8.27
2018-01-21T04:55:36.432Z,8.23
2018-01-21T04:58:05.718Z,8.67
2018-01-21T05:00:33.556Z,9.23
2018-01-21T05:03:01.862Z,8.20
2018-01-21T05:05:29.932Z,8.37
2018-01-21T05:07:57.902Z,8.13
2018-01-21T05:10:28.231Z,8.73
2018-01-21T05:12:56.083Z,8.67
2018-01-21T05:15:24.366Z,8.50
2018-01-21T05:17:52.590Z,9.17
2018-01-21T05:20:24.820Z,8.20
2018-01-21T05:22:52.678Z,8.60
2018-01-21T05:25:20.373Z,9.27
2018-01-21T05:27:48.635Z,11.13
2018-01-21T05:30:16.791Z,11.50
2018-01-21T05:32:44.983Z,12.57
2018-01-21T05:35:13.243Z,11.63
2018-01-21T05:37:41.264Z,13.17
2018-01-21T05:40:09.253Z,13.17
2018-01-21T05:42:37.246Z,13.57
2018-01-21T05:45:07.259Z,13.80
2018-01-21T05:47:35.200Z,14.63
2018-01-21T05:50:05.142Z,14.17
2018-01-21T05:52:33.434Z,13.87
2018-01-21T05:55:01.671Z,13.37
2018-01-21T05:57:32.030Z,14.47
2018-01-21T06:00:00.089Z,15.03
2018-01-21T06:02:27.918Z,14.40
2018-01-21T06:04:56.133Z,13.67
2018-01-21T06:07:26.459Z,14.50
2018-01-21T06:09:56.865Z,13.60
2018-01-21T06:12:27.081Z,14.70
2018-01-21T06:14:56.094Z,14.37
2018-01-21T06:17:25.086Z,14.90
2018-01-21T06:19:53.001Z,14.57
2018-01-21T06:22:23.193Z,15.13
2018-01-21T06:24:53.157Z,13.60
2018-01-21T06:27:21.461Z,14.93
2018-01-21T06:29:49.362Z,15.47
2018-01-21T06:32:19.477Z,14.60
2018-01-21T06:34:47.694Z,15.73
2018-01-21T06:37:15.657Z,15.70
2018-01-21T06:39:43.975Z,15.43
2018-01-21T06:42:11.865Z,16.03
2018-01-21T06:44:44.258Z,15.80
2018-01-21T06:47:12.481Z,16.40
2018-01-21T06:49:42.888Z,15.07
2018-01-21T06:52:10.827Z,14.87
2018-01-21T06:54:39.018Z,14.97
2018-01-21T06:57:07.220Z,15.90
2018-01-21T06:59:35.174Z,17.73
2018-01-21T07:02:03.114Z,17.40
2018-01-21T07:04:31.134Z,19.03
2018-01-21T07:07:03.200Z,18.73
2018-01-21T07:09:35.744Z,19.33
2018-01-21T07:12:11.937Z,18.73
2018-01-21T07:14:40.815Z,19.73
2018-01-21T07:17:09.616Z,20.80
2018-01-21T07:19:38.048Z,20.73
2018-01-21T07:22:06.112Z,19.57
2018-01-21T07:24:34.278Z,19.60
2018-01-21T07:27:02.528Z,19.50
2018-01-21T07:29:31.257Z,21.43
2018-01-21T07:31:59.724Z,19.93
2018-01-21T07:34:29.992Z,18.40
2018-01-21T07:36:57.981Z,18.80
2018-01-21T07:39:28.403Z,17.70
2018-01-21T07:41:57.085Z,17.90
2018-01-21T07:44:26.153Z,17.80
2018-01-21T07:46:54.749Z,17.40
2018-01-21T07:49:23.433Z,18.43
2018-01-21T07:51:53.925Z,18.90
2018-01-21T07:54:21.914Z,17.60
2018-01-21T07:56:53.792Z,18.53
2018-01-21T07:59:21.918Z,18.70
2018-01-21T08:01:50.084Z,18.63
2018-01-21T08:04:18.175Z,19.17
2018-01-21T08:06:46.143Z,19.43
2018-01-21T08:09:14.331Z,19.50
2018-01-21T08:11:42.830Z,19.00
2018-01-21T08:14:11.091Z,19.40
2018-01-21T08:16:41.788Z,21.33
2018-01-21T08:19:10.027Z,21.23
2018-01-21T08:21:38.493Z,21.47
2018-01-21T08:24:06.374Z,20.13
2018-01-21T08:26:35.260Z,21.17
2018-01-21T08:29:03.507Z,21.77
2018-01-21T08:31:31.395Z,20.87
2018-01-21T08:34:05.185Z,21.93
2018-01-21T08:36:38.650Z,22.80
2018-01-21T08:39:16.200Z,22.23
2018-01-21T08:44:59.329Z,22.50
2018-01-21T08:47:30.185Z,23.37
2018-01-21T08:49:58.021Z,22.80
2018-01-21T08:52:30.308Z,23.50
2018-01-21T08:54:58.784Z,24.33
2018-01-21T08:57:26.645Z,24.87
2018-01-21T08:59:55.608Z,25.80
2018-01-21T09:02:23.573Z,24.70
2018-01-21T09:04:55.580Z,26.60
2018-01-21T09:07:23.979Z,25.03
2018-01-21T09:09:54.477Z,26.70
2018-01-21T09:12:24.860Z,26.43
2018-01-21T09:14:52.825Z,29.27
2018-01-21T09:17:22.796Z,26.83
2018-01-21T09:19:50.506Z,29.90
2018-01-21T09:22:20.421Z,29.67
2018-01-21T09:24:48.748Z,30.40
2018-01-21T09:27:18.961Z,32.63
2018-01-21T09:29:47.954Z,33.57
2018-01-21T09:32:20.030Z,32.77
2018-01-21T09:34:48.935Z,30.63
2018-01-21T09:37:20.968Z,30.07
2018-01-21T09:39:48.989Z,29.63
2018-01-21T09:42:18.138Z,29.57
2018-01-21T09:44:45.984Z,30.37
2018-01-21T09:47:14.288Z,29.33
2018-01-21T09:49:42.541Z,29.67
2018-01-21T09:52:10.516Z,28.73
2018-01-21T09:54:38.746Z,29.07
2018-01-21T09:57:09.090Z,28.13
2018-01-21T09:59:37.587Z,26.90
2018-01-21T10:02:05.680Z,30.43
2018-01-21T10:04:34.662Z,28.13
2018-01-21T10:07:02.724Z,28.67
2018-01-21T10:09:30.773Z,28.83
2018-01-21T10:12:03.338Z,27.40
2018-01-21T10:14:31.882Z,27.80
2018-01-21T10:17:02.687Z,27.37
2018-01-21T10:19:31.602Z,26.57
2018-01-21T10:21:59.869Z,25.77
2018-01-21T10:24:28.092Z,27.13
2018-01-21T10:26:56.350Z,27.80
2018-01-21T10:29:28.706Z,27.03
2018-01-21T10:31:56.350Z,27.23
2018-01-21T10:34:25.460Z,28.17
2018-01-21T10:36:53.830Z,28.57
2018-01-21T10:39:24.320Z,28.27
2018-01-21T10:41:52.264Z,29.33
2018-01-21T10:44:20.270Z,28.40
2018-01-21T10:46:52.568Z,28.77
2018-01-21T10:49:21.438Z,29.63
2018-01-21T10:51:57.625Z,29.33
2018-01-21T10:54:25.680Z,29.97
2018-01-21T10:56:53.792Z,31.33
2018-01-21T10:59:22.623Z,31.37
2018-01-21T11:01:52.668Z,30.17
2018-01-21T11:04:21.034Z,31.67
2018-01-21T11:06:50.025Z,31.43
2018-01-21T11:09:18.784Z,31.63
2018-01-21T11:11:46.850Z,33.50
2018-01-21T11:14:15.678Z,32.93
2018-01-21T11:16:43.599Z,33.13
2018-01-21T11:19:13.780Z,32.27
2018-01-21T11:21:41.588Z,32.10
2018-01-21T11:24:11.789Z,32.47
2018-01-21T11:26:39.993Z,32.67
2018-01-21T11:29:08.192Z,32.57
2018-01-21T11:31:36.148Z,33.17
2018-01-21T11:34:04.178Z,32.17
2018-01-21T11:36:34.331Z,30.20
2018-01-21T11:39:02.523Z,31.37
2018-01-21T11:41:33.036Z,32.10
2018-01-21T11:44:01.202Z,33.23
2018-01-21T11:46:32.110Z,34.53
2018-01-21T11:49:00.336Z,29.60
2018-01-21T11:51:28.275Z,30.85
2018-01-21T11:53:58.432Z,26.93
2018-01-21T11:56:26.378Z,31.70
2018-01-21T11:58:56.324Z,28.17
2018-01-21T12:01:25.210Z,27.20
2018-01-21T12:03:54.276Z,26.53
2018-01-21T12:06:24.396Z,27.23
2018-01-21T12:08:52.388Z,26.83
2018-01-21T12:11:24.451Z,26.07
2018-01-21T12:13:52.671Z,27.10
2018-01-21T12:16:21.825Z,28.57
2018-01-21T12:18:50.067Z,26.30
2018-01-21T12:21:22.342Z,27.50
2018-01-21T12:23:50.283Z,26.03
2018-01-21T12:26:20.559Z,27.67
2018-01-21T12:28:48.380Z,28.10
2018-01-21T12:31:17.046Z,29.33
2018-01-21T12:33:44.885Z,29.20
2018-01-21T12:36:13.139Z,28.07
2018-01-21T12:38:41.526Z,27.50
2018-01-21T12:41:09.906Z,28.90
2018-01-21T12:43:39.194Z,29.57
2018-01-21T12:46:12.197Z,30.53
2018-01-21T12:48:40.603Z,29.43
2018-01-21T12:51:09.117Z,29.57
2018-01-21T12:53:39.233Z,29.10
2018-01-21T12:56:08.217Z,31.87
2018-01-21T12:58:36.835Z,32.97
2018-01-21T13:01:05.828Z,32.13
2018-01-21T13:03:38.696Z,32.93
2018-01-21T13:06:08.712Z,31.60
2018-01-21T13:08:37.910Z,31.57
2018-01-21T13:11:08.619Z,34.47
2018-01-21T13:13:37.597Z,34.10
2018-01-21T13:16:07.783Z,34.57
2018-01-21T13:18:37.016Z,34.53
2018-01-21T13:21:04.953Z,35.03
2018-01-21T13:23:33.694Z,34.63
2018-01-21T13:26:03.765Z,34.20
2018-01-21T13:28:32.434Z,30.77
2018-01-21T13:31:00.692Z,35.57
2018-01-21T13:33:31.075Z,35.17
2018-01-21T13:36:00.471Z,35.20
2018-01-21T13:38:28.992Z,33.37
2018-01-21T13:40:57.275Z,33.70
2018-01-21T13:43:27.316Z,34.17
2018-01-21T13:45:59.672Z,33.77
2018-01-21T13:48:27.774Z,34.03
2018-01-21T13:50:55.814Z,33.60
2018-01-21T13:53:24.053Z,33.10
2018-01-21T13:55:52.023Z,34.73
2018-01-21T13:58:24.345Z,35.20
2018-01-21T14:00:52.412Z,34.00
2018-01-21T14:03:20.036Z,32.97
2018-01-21T14:05:47.726Z,33.40
2018-01-21T14:08:18.458Z,34.10
2018-01-21T14:10:46.541Z,34.60
2018-01-21T14:13:17.745Z,32.57
2018-01-21T14:15:46.244Z,32.33
2018-01-21T14:18:14.285Z,33.83
2018-01-21T14:20:42.275Z,32.43
2018-01-21T14:23:11.039Z,34.47
2018-01-21T14:25:39.980Z,33.83
2018-01-21T14:28:10.711Z,35.27
2018-01-21T14:30:38.343Z,34.70
2018-01-21T14:33:08.686Z,36.07
2018-01-21T14:35:36.517Z,36.47
2018-01-21T14:38:04.845Z,34.87
2018-01-21T14:40:32.982Z,34.90
2018-01-21T14:43:03.209Z,36.93
2018-01-21T14:45:31.738Z,36.20
2018-01-21T14:48:00.492Z,36.20
2018-01-21T14:50:28.868Z,35.53
2018-01-21T14:52:56.825Z,36.57
2018-01-21T14:55:25.190Z,36.97
2018-01-21T14:57:53.696Z,36.30
2018-01-21T15:00:24.856Z,37.30
2018-01-21T15:02:52.666Z,36.50
2018-01-21T15:05:24.681Z,36.87
2018-01-21T15:07:52.625Z,36.30
2018-01-21T15:10:20.608Z,37.70
2018-01-21T15:12:48.880Z,36.93
2018-01-21T15:15:16.841Z,37.63
2018-01-21T15:17:44.781Z,37.80
2018-01-21T15:20:12.970Z,38.23
2018-01-21T15:22:41.052Z,38.40
2018-01-21T15:25:11.125Z,39.57
2018-01-21T15:27:41.914Z,39.43
2018-01-21T15:30:09.933Z,39.43
2018-01-21T15:32:38.747Z,38.57
2018-01-21T15:35:07.045Z,39.90
2018-01-21T15:37:34.880Z,40.07
2018-01-21T15:40:07.192Z,40.50
2018-01-21T15:42:35.044Z,39.83
2018-01-21T15:45:03.076Z,39.27
2018-01-21T15:47:32.018Z,40.40
2018-01-21T15:50:01.032Z,39.37
2018-01-21T15:52:31.235Z,38.47
2018-01-21T15:54:59.002Z,41.93
2018-01-21T15:57:29.220Z,41.37
2018-01-21T15:59:59.736Z,41.77
2018-01-21T16:02:27.807Z,42.30
2018-01-21T16:04:58.955Z,42.53
2018-01-21T16:07:26.916Z,43.07
2018-01-21T16:09:54.854Z,43.03
2018-01-21T16:12:27.170Z,42.00
2018-01-21T16:14:56.038Z,41.03
2018-01-21T16:17:26.256Z,45.60
2018-01-21T16:19:54.242Z,43.23
2018-01-21T16:22:24.363Z,43.90
2018-01-21T16:24:52.597Z,43.57
2018-01-21T16:27:20.813Z,42.30
2018-01-21T16:29:49.086Z,41.57
2018-01-21T16:32:17.744Z,44.43
2018-01-21T16:34:45.711Z,43.93
2018-01-21T16:37:25.457Z,44.03
2018-01-21T16:39:59.912Z,43.40
2018-01-21T16:42:27.967Z,43.40
2018-01-21T16:44:56.622Z,44.70
2018-01-21T16:47:25.260Z,43.13
2018-01-21T16:49:54.024Z,44.53
2018-01-21T16:52:26.452Z,44.50
2018-01-21T16:54:54.533Z,44.90
2018-01-21T16:57:24.577Z,42.83
2018-01-21T16:59:54.602Z,42.03
2018-01-21T17:02:22.429Z,41.53
2018-01-21T17:04:51.243Z,44.70
2018-01-21T17:07:19.708Z,44.30
2018-01-21T17:09:47.702Z,43.20
2018-01-21T17:12:16.088Z,43.57
2018-01-21T17:14:49.183Z,44.30
2018-01-21T17:17:17.550Z,43.90
2018-01-21T17:19:45.514Z,44.37
2018-01-21T17:22:15.852Z,44.37
2018-01-21T17:24:44.220Z,44.97
2018-01-21T17:27:12.982Z,45.67
2018-01-21T17:29:41.173Z,45.83
2018-01-21T17:32:10.277Z,50.00
2018-01-21T17:34:40.810Z,47.90
2018-01-21T17:37:09.803Z,50.80
2018-01-21T17:39:38.959Z,49.77
2018-01-21T17:42:06.925Z,51.67
2018-01-21T17:44:35.248Z,51.03
2018-01-21T17:47:03.508Z,52.70
2018-01-21T17:49:31.446Z,54.60
2018-01-21T17:52:01.362Z,53.67
2018-01-21T17:54:29.557Z,53.27
2018-01-21T17:56:59.596Z,54.40
2018-01-21T17:59:29.817Z,53.47
2018-01-21T18:01:57.950Z,55.10
2018-01-21T18:04:27.891Z,52.13
2018-01-21T18:06:55.914Z,53.97
2018-01-21T18:09:23.625Z,54.63
2018-01-21T18:11:54.535Z,50.37
2018-01-21T18:14:25.050Z,52.37
2018-01-21T18:16:57.073Z,53.40
2018-01-21T18:19:27.287Z,52.43
2018-01-21T18:21:55.506Z,52.03
2018-01-21T18:24:32.651Z,51.27
2018-01-21T18:27:01.932Z,51.30
2018-01-21T18:29:32.176Z,51.83
2018-01-21T18:32:03.006Z,51.27
2018-01-21T18:34:31.875Z,52.07
2018-01-21T18:36:59.812Z,52.77
2018-01-21T18:39:29.963Z,50.80
2018-01-21T18:41:58.393Z,51.43
2018-01-21T18:44:26.613Z,49.23
2018-01-21T18:46:58.801Z,52.53
2018-01-21T18:49:27.599Z,51.53
2018-01-21T18:51:55.554Z,49.57
2018-01-21T18:54:27.616Z,51.33
2018-01-21T18:56:56.197Z,50.23
2018-01-21T18:59:24.528Z,49.70
2018-01-21T19:01:55.525Z,50.60
2018-01-21T19:04:23.667Z,50.13
2018-01-21T19:06:55.955Z,50.13
2018-01-21T19:09:26.184Z,50.30
2018-01-21T19:11:54.405Z,50.03
2018-01-21T19:14:25.444Z,49.60
2018-01-21T19:16:53.455Z,49.63
2018-01-21T19:19:21.901Z,52.53
2018-01-21T19:21:49.920Z,50.23
2018-01-21T19:24:19.210Z,52.30
2018-01-21T19:26:47.174Z,50.63
2018-01-21T19:29:15.113Z,52.10
2018-01-21T19:31:48.036Z,51.87
2018-01-21T19:34:15.870Z,52.00
2018-01-21T19:36:44.533Z,50.77
2018-01-21T19:39:27.912Z,50.70
2018-01-21T19:41:57.589Z,53.97
2018-01-21T19:44:31.008Z,53.50
2018-01-21T19:46:59.044Z,52.07
2018-01-21T19:49:27.757Z,55.47
2018-01-21T19:51:56.020Z,54.93
2018-01-21T19:54:25.720Z,54.23
2018-01-21T19:56:54.655Z,52.53
2018-01-21T19:59:25.693Z,52.83
2018-01-21T20:01:54.060Z,52.90
2018-01-21T20:04:23.557Z,54.03
2018-01-21T20:06:52.277Z,54.23
2018-01-21T20:09:20.234Z,52.03
2018-01-21T20:11:48.494Z,52.60
2018-01-21T20:14:19.040Z,54.20
2018-01-21T20:16:46.700Z,54.53
2018-01-21T20:19:14.455Z,52.70
2018-01-21T20:21:45.260Z,52.73
2018-01-21T20:24:17.315Z,50.93
2018-01-21T20:26:45.392Z,49.90
2018-01-21T20:29:13.357Z,52.27
2018-01-21T20:31:42.102Z,50.27
2018-01-21T20:34:11.267Z,50.53
2018-01-21T20:36:39.537Z,49.57
2018-01-21T20:39:11.236Z,51.30
2018-01-21T20:41:38.940Z,49.47
2018-01-21T20:44:11.283Z,50.67
2018-01-21T20:46:41.517Z,50.90
2018-01-21T20:49:09.706Z,51.20
2018-01-21T20:51:43.222Z,52.27
2018-01-21T20:54:17.269Z,52.47
2018-01-21T20:56:48.553Z,49.57
2018-01-21T20:59:17.541Z,53.73
2018-01-21T21:01:46.066Z,52.50
2018-01-21T21:04:14.147Z,51.47
2018-01-21T21:06:43.328Z,53.07
2018-01-21T21:09:12.524Z,52.53
2018-01-21T21:11:42.755Z,51.67
2018-01-21T21:14:10.511Z,50.73
2018-01-21T21:16:40.736Z,50.77
2018-01-21T21:19:08.697Z,53.00
2018-01-21T21:21:37.640Z,50.43
2018-01-21T21:24:09.862Z,50.13
2018-01-21T21:26:37.986Z,51.13
2018-01-21T21:29:07.101Z,53.20
2018-01-21T21:31:38.194Z,53.90
2018-01-21T21:34:06.442Z,50.87
2018-01-21T21:36:36.823Z,52.70
2018-01-21T21:39:04.814Z,51.47
2018-01-21T21:41:36.803Z,51.27
2018-01-21T21:44:07.024Z,48.97
2018-01-21T21:46:38.660Z,51.07
2018-01-21T21:49:06.700Z,52.17
2018-01-21T21:51:36.145Z,50.60
2018-01-21T21:54:06.684Z,50.93
2018-01-21T21:56:34.647Z,49.33
2018-01-21T21:59:04.922Z,52.30
2018-01-21T22:01:34.243Z,48.47
2018-01-21T22:04:07.498Z,47.47
2018-01-21T22:06:36.327Z,49.07
2018-01-21T22:09:05.485Z,46.77
2018-01-21T22:11:34.514Z,47.03
2018-01-21T22:14:02.756Z,48.53
2018-01-21T22:16:32.251Z,45.73
2018-01-21T22:19:05.813Z,47.47
2018-01-21T22:21:34.787Z,45.37
2018-01-21T22:24:07.955Z,46.30
2018-01-21T22:26:36.817Z,45.60
2018-01-21T22:29:06.659Z,44.57
2018-01-21T22:31:35.780Z,43.47
2018-01-21T22:34:04.568Z,44.17
2018-01-21T22:36:34.559Z,43.47
2018-01-21T22:39:04.272Z,43.20
2018-01-21T22:41:33.084Z,42.67
2018-01-21T22:44:01.038Z,42.90
2018-01-21T22:46:29.229Z,40.67
2018-01-21T22:48:57.171Z,41.50
2018-01-21T22:51:29.181Z,41.53
2018-01-21T22:53:56.874Z,40.37
2018-01-21T22:56:29.003Z,41.57
2018-01-21T22:58:59.526Z,40.17
2018-01-21T23:01:27.904Z,40.83
2018-01-21T23:03:59.969Z,39.97
2018-01-21T23:06:28.151Z,39.23
2018-01-21T23:08:58.144Z,37.70
2018-01-21T23:11:25.883Z,36.87
2018-01-21T23:13:53.573Z,36.70
2018-01-21T23:16:26.412Z,38.77
2018-01-21T23:18:54.352Z,36.33
2018-01-21T23:21:22.657Z,36.97
2018-01-21T23:23:50.734Z,35.53
2018-01-21T23:26:19.055Z,36.03
2018-01-21T23:28:47.015Z,36.57
2018-01-21T23:31:14.994Z,35.87
2018-01-21T23:33:43.278Z,34.97
2018-01-21T23:36:11.286Z,36.37
2018-01-21T23:38:45.860Z,34.67
2018-01-21T23:41:13.817Z,35.03
2018-01-21T23:43:41.794Z,34.10
2018-01-21T23:46:10.074Z,34.60
2018-01-21T23:48:38.341Z,34.37
2018-01-21T23:51:06.223Z,32.23
2018-01-21T23:53:34.368Z,31.83
2018-01-21T23:56:02.609Z,32.60
2018-01-21T23:58:30.601Z,32.67
